createdAt,value
2022-11-20T00:07:46.436Z,2.23
2022-11-20T00:17:50.203Z,4.60
2022-11-20T00:27:55.218Z,1.97
2022-11-20T00:37:58.937Z,1.60
2022-11-20T00:48:04.084Z,3.77
2022-11-20T00:58:11.580Z,2.40
2022-11-20T01:08:19.206Z,1.97
2022-11-20T01:18:22.920Z,4.17
2022-11-20T01:28:28.164Z,3.27
2022-11-20T01:38:31.860Z,5.33
2022-11-20T01:48:42.593Z,2.97
2022-11-20T01:58:53.585Z,3.53
2022-11-20T02:08:59.869Z,1.97
2022-11-20T02:19:08.598Z,4.20
2022-11-20T02:29:14.861Z,4.53
2022-11-20T02:39:19.143Z,4.00
2022-11-20T02:49:24.432Z,3.77
2022-11-20T02:59:30.326Z,4.53
2022-11-20T03:09:35.349Z,4.63
2022-11-20T03:19:39.052Z,3.00
2022-11-20T03:29:44.076Z,4.10
2022-11-20T03:39:47.732Z,2.50
2022-11-20T03:49:52.788Z,1.20
2022-11-20T03:59:56.980Z,5.67
2022-11-20T04:10:01.996Z,2.30
2022-11-20T04:20:09.669Z,2.03
2022-11-20T04:30:15.586Z,7.17
2022-11-20T04:40:19.374Z,3.57
2022-11-20T04:50:24.384Z,3.20
2022-11-20T05:00:28.401Z,3.63
2022-11-20T05:10:33.569Z,2.27
2022-11-20T05:20:38.083Z,5.87
2022-11-20T05:30:43.038Z,5.83
2022-11-20T05:40:46.685Z,2.60
2022-11-20T05:50:51.868Z,3.20
2022-11-20T06:00:55.933Z,2.87
2022-11-20T06:11:05.602Z,4.13
2022-11-20T06:21:12.820Z,3.07
2022-11-20T06:31:21.245Z,2.67
2022-11-20T06:41:26.154Z,1.87
2022-11-20T06:51:31.988Z,1.53
2022-11-20T07:01:36.531Z,2.13
2022-11-20T07:11:41.557Z,1.73
2022-11-20T07:21:45.185Z,4.13
2022-11-20T07:31:50.225Z,4.37
2022-11-20T07:41:55.092Z,5.00
2022-11-20T07:52:04.555Z,5.20
2022-11-20T08:02:12.621Z,5.93
2022-11-20T08:12:39.939Z,3.10
2022-11-20T08:22:44.660Z,3.63
2022-11-20T08:32:50.180Z,4.07
2022-11-20T08:42:54.139Z,3.77
2022-11-20T08:53:05.413Z,5.57
2022-11-20T09:03:09.811Z,7.60
2022-11-20T09:13:14.898Z,6.53
2022-11-20T09:23:19.100Z,5.97
2022-11-20T09:33:24.149Z,6.13
2022-11-20T09:43:47.853Z,9.13
2022-11-20T09:54:11.411Z,7.00
2022-11-20T10:04:19.345Z,5.63
2022-11-20T10:14:35.785Z,6.27
2022-11-20T10:24:55.220Z,9.40
2022-11-20T10:35:07.152Z,11.20
2022-11-20T10:45:21.241Z,10.10
2022-11-20T10:55:35.521Z,4.57
2022-11-20T11:05:43.513Z,9.07
2022-11-20T11:15:48.658Z,7.97
2022-11-20T11:26:00.422Z,10.40
2022-11-20T11:36:20.967Z,4.97
2022-11-20T11:46:31.583Z,7.83
2022-11-20T11:56:36.866Z,11.37
2022-11-20T12:06:45.349Z,5.90
2022-11-20T12:16:51.420Z,5.77
2022-11-20T12:27:13.597Z,7.77
2022-11-20T12:37:35.036Z,7.30
2022-11-20T12:47:57.228Z,6.23
2022-11-20T12:58:11.222Z,12.17
2022-11-20T13:08:23.046Z,11.43
2022-11-20T13:18:29.473Z,15.50
2022-11-20T13:28:33.591Z,11.50
2022-11-20T13:38:46.660Z,7.87
2022-11-20T13:48:50.319Z,8.23
2022-11-20T13:59:12.091Z,6.97
2022-11-20T14:09:29.108Z,7.37
2022-11-20T14:19:34.780Z,6.77
2022-11-20T14:29:41.585Z,7.23
2022-11-20T14:39:53.886Z,6.13
2022-11-20T14:49:58.990Z,7.53
2022-11-20T15:00:19.675Z,12.80
2022-11-20T15:10:27.511Z,9.73
2022-11-20T15:20:34.793Z,7.47
2022-11-20T15:30:38.529Z,7.43
2022-11-20T15:40:43.668Z,6.43
2022-11-20T15:50:55.436Z,4.90
2022-11-20T16:01:00.813Z,7.57
2022-11-20T16:11:05.660Z,4.67
2022-11-20T16:21:14.226Z,3.20
2022-11-20T16:31:21.075Z,4.60
2022-11-20T16:41:29.119Z,3.67
2022-11-20T16:51:36.366Z,3.03
2022-11-20T17:01:43.099Z,6.10
2022-11-20T17:11:49.785Z,6.43
2022-11-20T17:21:54.808Z,5.23
2022-11-20T17:31:58.467Z,3.73
2022-11-20T17:42:20.987Z,6.83
2022-11-20T17:52:24.748Z,5.17
2022-11-20T18:02:29.825Z,3.17
2022-11-20T18:12:33.534Z,3.50
2022-11-20T18:22:38.786Z,4.47
2022-11-20T18:32:42.614Z,6.97
2022-11-20T18:43:05.029Z,3.17
2022-11-20T18:53:08.739Z,1.60
2022-11-20T19:03:13.921Z,5.30
2022-11-20T19:13:17.622Z,2.97
2022-11-20T19:23:22.979Z,0.63
2022-11-20T19:33:26.657Z,2.50
2022-11-20T19:43:32.366Z,1.00
2022-11-20T19:53:36.079Z,0.83
2022-11-20T20:03:42.344Z,3.33
2022-11-20T20:13:47.908Z,0.70
2022-11-20T20:23:55.498Z,2.07
2022-11-20T20:33:59.614Z,0.37
2022-11-20T20:44:22.469Z,2.90
2022-11-20T20:54:29.244Z,1.03
2022-11-20T21:04:36.808Z,0.43
2022-11-20T21:14:40.671Z,1.50
2022-11-20T21:24:45.816Z,0.40
2022-11-20T21:34:49.635Z,1.17
2022-11-20T21:44:54.787Z,1.40
2022-11-20T21:54:58.523Z,0.70
2022-11-20T22:05:03.693Z,0.33
2022-11-20T22:15:08.976Z,1.23
2022-11-20T22:25:14.323Z,0.40
2022-11-20T22:35:17.973Z,0.20
2022-11-20T22:45:27.328Z,1.10
2022-11-20T22:55:30.978Z,0.30
2022-11-20T23:05:36.998Z,0.40
2022-11-20T23:15:40.623Z,0.23
2022-11-20T23:25:45.727Z,4.77
2022-11-20T23:35:49.624Z,0.30
2022-11-20T23:45:57.378Z,0.80
2022-11-20T23:56:04.385Z,0.20
